Terminal Aerodrome Forecast
Issued by NWS Wilmington, NC

Home | Current Version | Previous Version | Text Only | Print | Product List | Glossary On
Versions: 1 2 3 4 5 6 7 8 9 10 11 12 13 14
000
FTUS42 KILM 211100
TAFILM
TAF
KILM 211120Z 2112/2212 VRB03KT P6SM FEW050 SCT090
     FM211500 26007KT P6SM SCT050
     FM212100 23009KT P6SM SKC
     FM220500 31011KT P6SM SKC=

USA.gov is the U.S. government's official web portal to all federal, state and local government web resources and services.